Castlemartyr, Ireland
Current Conditions -  °F | °C
As of 8:30 AM on Sunday 26 Oct 2014 (Local Time) from EICK Reporting Station
Broken Clouds Broken Clouds  
Wind Chill: 54°   Ceiling: 4200
Heat Index: 54°   Visibility: 6mi
Dew Point: 52°   Wind: 20mph
Humidity: 94%   Direction: 230°SW
Pressure: 29.94"   Gusts: NA
Location:  51.91°N, 8.05°W
Report Text: EICK 260830Z 23017KT 9999 FEW020 BKN042 12/11 Q1014 NOSIG
Loading
Personal Weather Stations






























Interactive Weather Map
Tropical Storm Tracking
New forecast layout! Learn more

10-Day Weather Forecast

Advertisements
Track Severe Weather on mobile